首页
METAR-TAF:

METAR-TAF

机场 :

St. George Municipal Airport

圣乔治, 犹他州, 美国

纬度: 37-05N, 经度: 113-36W, 海拔: 896米

当前天气观测

该预报发布于25分钟前的08:56 UTC
风速6节,风向
温度 27°C
湿度 16%
气压 1012 hPa
能見度: 16.1公里
天空无云

METAR: KSGU 160856Z AUTO 10006KT 10SM CLR 27/M01 A2987 RMK AO2 SLP070 T02671006 50004

时间: 03:21 (09:21 UTC)

预报

该预报发布于4小时和1分钟前的05:20 UTC
预报有效从16日的 06点(UTC)到 17日的 06点(UTC)
风速4节,风向多变
能見度: 10公里
天空无云
从 16日的 2000点(UTC)
风速18节,风向西转西南,有时为28节阵风
能見度: 10公里
少量云层高于15000英尺
从 17日的 0200点(UTC)
风速7节,风向东南
能見度: 10公里
天空无云

TAF: KSGU 160520Z 1606/1706 VRB04KT P6SM SKC FM162000 25018G28KT P6SM FEW150 FM170200 14007KT P6SM SKC

超过4000个机场的气象观测和天气预报(METAR&TAF报告)。

可查询的气象台以黄色和红色小点在地图上表示。

将鼠标移到小点上方,可查看气象台名称。

然后点击查看天气观测和预报。

如需切换地图:点击带黑十字的绿色按钮放大地图;点击带横线的绿色按钮缩小地图;或者点击绿色箭头查看邻近地区的地图。


METAR-TAF: